sensor_id;sensor_type;location;lat;lon;timestamp;P1;durP1;ratioP1;P2;durP2;ratioP2
66800;SDS011;53703;50.326;19.122;2024-02-04T00:01:51;6.10;;;3.40;;
66800;SDS011;53703;50.326;19.122;2024-02-04T00:04:29;5.40;;;3.00;;
66800;SDS011;53703;50.326;19.122;2024-02-04T00:07:04;5.50;;;2.80;;
66800;SDS011;53703;50.326;19.122;2024-02-04T00:09:37;6.70;;;3.20;;
66800;SDS011;53703;50.326;19.122;2024-02-04T00:12:11;6.10;;;3.20;;
66800;SDS011;53703;50.326;19.122;2024-02-04T00:14:46;5.20;;;2.90;;
66800;SDS011;53703;50.326;19.122;2024-02-04T00:17:20;7.30;;;3.30;;
66800;SDS011;53703;50.326;19.122;2024-02-04T00:19:54;5.40;;;3.00;;
66800;SDS011;53703;50.326;19.122;2024-02-04T00:22:29;7.10;;;3.00;;
66800;SDS011;53703;50.326;19.122;2024-02-04T00:25:05;5.70;;;3.20;;
66800;SDS011;53703;50.326;19.122;2024-02-04T00:27:45;5.80;;;2.80;;
66800;SDS011;53703;50.326;19.122;2024-02-04T00:30:27;5.50;;;3.00;;
66800;SDS011;53703;50.326;19.122;2024-02-04T00:33:01;5.70;;;3.00;;
66800;SDS011;53703;50.326;19.122;2024-02-04T00:35:36;6.00;;;3.10;;
66800;SDS011;53703;50.326;19.122;2024-02-04T00:38:23;4.90;;;2.60;;
66800;SDS011;53703;50.326;19.122;2024-02-04T00:43:56;5.00;;;2.80;;
66800;SDS011;53703;50.326;19.122;2024-02-04T00:46:30;5.50;;;2.80;;
66800;SDS011;53703;50.326;19.122;2024-02-04T00:49:04;4.90;;;2.60;;
66800;SDS011;53703;50.326;19.122;2024-02-04T00:51:59;4.90;;;2.80;;
66800;SDS011;53703;50.326;19.122;2024-02-04T00:57:28;5.40;;;3.10;;
66800;SDS011;53703;50.326;19.122;2024-02-04T01:00:02;9.90;;;5.50;;
66800;SDS011;53703;50.326;19.122;2024-02-04T01:02:55;11.60;;;6.40;;
66800;SDS011;53703;50.326;19.122;2024-02-04T01:05:29;7.70;;;4.60;;
66800;SDS011;53703;50.326;19.122;2024-02-04T01:08:06;8.40;;;4.90;;
66800;SDS011;53703;50.326;19.122;2024-02-04T01:10:40;7.90;;;4.50;;
66800;SDS011;53703;50.326;19.122;2024-02-04T01:13:14;7.10;;;3.90;;
66800;SDS011;53703;50.326;19.122;2024-02-04T01:15:48;7.60;;;4.60;;
66800;SDS011;53703;50.326;19.122;2024-02-04T01:18:23;6.60;;;3.80;;
66800;SDS011;53703;50.326;19.122;2024-02-04T01:20:57;6.40;;;3.80;;
66800;SDS011;53703;50.326;19.122;2024-02-04T01:23:31;7.10;;;3.70;;
66800;SDS011;53703;50.326;19.122;2024-02-04T01:26:06;6.60;;;3.70;;
66800;SDS011;53703;50.326;19.122;2024-02-04T01:28:40;6.00;;;3.70;;
66800;SDS011;53703;50.326;19.122;2024-02-04T01:31:14;6.90;;;3.50;;
66800;SDS011;53703;50.326;19.122;2024-02-04T01:33:48;5.70;;;3.50;;
66800;SDS011;53703;50.326;19.122;2024-02-04T01:36:22;5.20;;;3.30;;
66800;SDS011;53703;50.326;19.122;2024-02-04T01:38:55;6.70;;;3.80;;
66800;SDS011;53703;50.326;19.122;2024-02-04T01:41:29;6.50;;;3.50;;
66800;SDS011;53703;50.326;19.122;2024-02-04T01:44:04;5.10;;;3.20;;
66800;SDS011;53703;50.326;19.122;2024-02-04T01:46:38;5.60;;;3.40;;
66800;SDS011;53703;50.326;19.122;2024-02-04T01:49:12;6.20;;;3.70;;
66800;SDS011;53703;50.326;19.122;2024-02-04T01:51:46;5.40;;;3.10;;
66800;SDS011;53703;50.326;19.122;2024-02-04T01:54:20;6.30;;;3.20;;
66800;SDS011;53703;50.326;19.122;2024-02-04T01:56:56;6.20;;;3.40;;
66800;SDS011;53703;50.326;19.122;2024-02-04T01:59:32;4.70;;;3.10;;
66800;SDS011;53703;50.326;19.122;2024-02-04T02:02:06;5.50;;;3.10;;
66800;SDS011;53703;50.326;19.122;2024-02-04T02:04:40;5.80;;;3.30;;
66800;SDS011;53703;50.326;19.122;2024-02-04T02:07:13;4.80;;;3.00;;
66800;SDS011;53703;50.326;19.122;2024-02-04T02:09:50;4.70;;;2.90;;
66800;SDS011;53703;50.326;19.122;2024-02-04T02:12:25;5.30;;;3.00;;
66800;SDS011;53703;50.326;19.122;2024-02-04T02:15:03;6.60;;;3.10;;
66800;SDS011;53703;50.326;19.122;2024-02-04T02:17:47;5.60;;;3.20;;
66800;SDS011;53703;50.326;19.122;2024-02-04T02:20:29;4.80;;;2.70;;
66800;SDS011;53703;50.326;19.122;2024-02-04T02:23:14;4.70;;;2.60;;
66800;SDS011;53703;50.326;19.122;2024-02-04T02:25:54;5.40;;;2.80;;
66800;SDS011;53703;50.326;19.122;2024-02-04T02:28:29;5.10;;;2.90;;
66800;SDS011;53703;50.326;19.122;2024-02-04T02:31:11;5.80;;;3.00;;
66800;SDS011;53703;50.326;19.122;2024-02-04T02:34:36;4.80;;;2.80;;
66800;SDS011;53703;50.326;19.122;2024-02-04T02:37:20;5.10;;;3.00;;
66800;SDS011;53703;50.326;19.122;2024-02-04T02:40:06;4.70;;;2.80;;
66800;SDS011;53703;50.326;19.122;2024-02-04T02:43:05;4.30;;;2.60;;
66800;SDS011;53703;50.326;19.122;2024-02-04T02:45:41;5.30;;;2.40;;
66800;SDS011;53703;50.326;19.122;2024-02-04T02:48:15;4.60;;;2.60;;
66800;SDS011;53703;50.326;19.122;2024-02-04T02:50:53;4.80;;;2.40;;
66800;SDS011;53703;50.326;19.122;2024-02-04T02:53:35;6.20;;;2.60;;
66800;SDS011;53703;50.326;19.122;2024-02-04T02:56:09;4.90;;;2.80;;
66800;SDS011;53703;50.326;19.122;2024-02-04T02:58:45;5.00;;;2.40;;
66800;SDS011;53703;50.326;19.122;2024-02-04T03:01:19;4.40;;;2.40;;
66800;SDS011;53703;50.326;19.122;2024-02-04T03:03:54;4.40;;;2.30;;
66800;SDS011;53703;50.326;19.122;2024-02-04T03:06:27;4.60;;;2.30;;
66800;SDS011;53703;50.326;19.122;2024-02-04T03:09:01;3.50;;;2.30;;
66800;SDS011;53703;50.326;19.122;2024-02-04T03:11:34;4.60;;;2.30;;
66800;SDS011;53703;50.326;19.122;2024-02-04T03:14:08;3.50;;;2.00;;
66800;SDS011;53703;50.326;19.122;2024-02-04T03:16:42;5.60;;;2.30;;
66800;SDS011;53703;50.326;19.122;2024-02-04T03:19:16;4.40;;;1.90;;
66800;SDS011;53703;50.326;19.122;2024-02-04T03:21:50;5.00;;;2.40;;
66800;SDS011;53703;50.326;19.122;2024-02-04T03:24:24;3.60;;;2.30;;
66800;SDS011;53703;50.326;19.122;2024-02-04T03:26:57;3.60;;;2.10;;
66800;SDS011;53703;50.326;19.122;2024-02-04T03:29:31;3.40;;;2.10;;
66800;SDS011;53703;50.326;19.122;2024-02-04T03:32:05;4.50;;;2.30;;
66800;SDS011;53703;50.326;19.122;2024-02-04T03:34:38;5.00;;;2.10;;
66800;SDS011;53703;50.326;19.122;2024-02-04T03:37:14;3.10;;;1.90;;
66800;SDS011;53703;50.326;19.122;2024-02-04T03:39:47;3.10;;;1.70;;
66800;SDS011;53703;50.326;19.122;2024-02-04T03:42:24;3.50;;;1.90;;
66800;SDS011;53703;50.326;19.122;2024-02-04T03:44:57;4.50;;;2.30;;
66800;SDS011;53703;50.326;19.122;2024-02-04T03:47:32;3.70;;;2.00;;
66800;SDS011;53703;50.326;19.122;2024-02-04T03:50:07;4.40;;;1.90;;
66800;SDS011;53703;50.326;19.122;2024-02-04T03:52:41;3.40;;;1.80;;
66800;SDS011;53703;50.326;19.122;2024-02-04T03:55:15;3.30;;;2.00;;
66800;SDS011;53703;50.326;19.122;2024-02-04T03:57:48;4.10;;;1.80;;
66800;SDS011;53703;50.326;19.122;2024-02-04T04:00:22;3.40;;;1.70;;
66800;SDS011;53703;50.326;19.122;2024-02-04T04:02:56;3.10;;;1.80;;
66800;SDS011;53703;50.326;19.122;2024-02-04T04:05:29;3.50;;;1.80;;
66800;SDS011;53703;50.326;19.122;2024-02-04T04:08:03;3.40;;;2.20;;
66800;SDS011;53703;50.326;19.122;2024-02-04T04:10:37;4.00;;;1.70;;
66800;SDS011;53703;50.326;19.122;2024-02-04T04:13:11;2.90;;;1.70;;
66800;SDS011;53703;50.326;19.122;2024-02-04T04:15:44;3.70;;;1.80;;
66800;SDS011;53703;50.326;19.122;2024-02-04T04:18:18;4.40;;;1.90;;
66800;SDS011;53703;50.326;19.122;2024-02-04T04:20:51;2.20;;;1.40;;
66800;SDS011;53703;50.326;19.122;2024-02-04T04:23:25;4.50;;;1.90;;
66800;SDS011;53703;50.326;19.122;2024-02-04T04:25:58;2.10;;;1.70;;
66800;SDS011;53703;50.326;19.122;2024-02-04T04:28:32;3.50;;;1.70;;
66800;SDS011;53703;50.326;19.122;2024-02-04T04:31:06;3.20;;;1.90;;
66800;SDS011;53703;50.326;19.122;2024-02-04T04:33:40;3.00;;;1.80;;
66800;SDS011;53703;50.326;19.122;2024-02-04T04:36:13;2.60;;;1.50;;
66800;SDS011;53703;50.326;19.122;2024-02-04T04:38:47;2.60;;;1.70;;
66800;SDS011;53703;50.326;19.122;2024-02-04T04:41:21;3.30;;;1.50;;
66800;SDS011;53703;50.326;19.122;2024-02-04T04:43:54;2.80;;;1.60;;
66800;SDS011;53703;50.326;19.122;2024-02-04T04:46:28;2.70;;;1.50;;
66800;SDS011;53703;50.326;19.122;2024-02-04T04:49:01;3.00;;;1.40;;
66800;SDS011;53703;50.326;19.122;2024-02-04T04:51:35;3.80;;;1.70;;
66800;SDS011;53703;50.326;19.122;2024-02-04T04:54:09;2.60;;;1.50;;
66800;SDS011;53703;50.326;19.122;2024-02-04T04:56:42;3.60;;;1.60;;
66800;SDS011;53703;50.326;19.122;2024-02-04T04:59:16;3.40;;;1.70;;
66800;SDS011;53703;50.326;19.122;2024-02-04T05:01:49;2.40;;;1.20;;
66800;SDS011;53703;50.326;19.122;2024-02-04T05:04:23;3.40;;;1.40;;
66800;SDS011;53703;50.326;19.122;2024-02-04T05:06:56;2.90;;;1.50;;
66800;SDS011;53703;50.326;19.122;2024-02-04T05:09:30;2.60;;;1.40;;
66800;SDS011;53703;50.326;19.122;2024-02-04T05:12:03;2.30;;;1.40;;
66800;SDS011;53703;50.326;19.122;2024-02-04T05:14:38;2.60;;;1.30;;
66800;SDS011;53703;50.326;19.122;2024-02-04T05:17:11;2.90;;;1.30;;
66800;SDS011;53703;50.326;19.122;2024-02-04T05:19:45;2.00;;;1.10;;
66800;SDS011;53703;50.326;19.122;2024-02-04T05:22:18;3.10;;;1.80;;
66800;SDS011;53703;50.326;19.122;2024-02-04T05:24:52;2.20;;;1.40;;
66800;SDS011;53703;50.326;19.122;2024-02-04T05:27:25;2.30;;;1.40;;
66800;SDS011;53703;50.326;19.122;2024-02-04T05:29:58;3.00;;;1.40;;
66800;SDS011;53703;50.326;19.122;2024-02-04T05:32:33;2.20;;;1.20;;
66800;SDS011;53703;50.326;19.122;2024-02-04T05:35:08;1.80;;;1.20;;
66800;SDS011;53703;50.326;19.122;2024-02-04T05:37:42;2.00;;;1.20;;
66800;SDS011;53703;50.326;19.122;2024-02-04T05:40:15;1.90;;;1.20;;
66800;SDS011;53703;50.326;19.122;2024-02-04T05:42:52;2.40;;;1.40;;
66800;SDS011;53703;50.326;19.122;2024-02-04T05:45:25;1.90;;;1.30;;
66800;SDS011;53703;50.326;19.122;2024-02-04T05:47:59;2.10;;;1.20;;
66800;SDS011;53703;50.326;19.122;2024-02-04T05:50:32;2.00;;;1.30;;
66800;SDS011;53703;50.326;19.122;2024-02-04T05:53:06;2.10;;;1.10;;
66800;SDS011;53703;50.326;19.122;2024-02-04T05:55:40;3.40;;;1.30;;
66800;SDS011;53703;50.326;19.122;2024-02-04T05:58:13;4.30;;;1.20;;
66800;SDS011;53703;50.326;19.122;2024-02-04T06:00:47;1.70;;;1.10;;
66800;SDS011;53703;50.326;19.122;2024-02-04T06:03:20;2.20;;;1.20;;
66800;SDS011;53703;50.326;19.122;2024-02-04T06:05:54;2.10;;;1.30;;
66800;SDS011;53703;50.326;19.122;2024-02-04T06:08:27;4.00;;;1.20;;
66800;SDS011;53703;50.326;19.122;2024-02-04T06:11:01;2.10;;;1.20;;
66800;SDS011;53703;50.326;19.122;2024-02-04T06:13:34;2.10;;;1.20;;
66800;SDS011;53703;50.326;19.122;2024-02-04T06:16:08;2.40;;;1.20;;
66800;SDS011;53703;50.326;19.122;2024-02-04T06:18:42;1.70;;;1.00;;
66800;SDS011;53703;50.326;19.122;2024-02-04T06:21:16;1.90;;;1.10;;
66800;SDS011;53703;50.326;19.122;2024-02-04T06:23:49;2.80;;;1.10;;
66800;SDS011;53703;50.326;19.122;2024-02-04T06:26:23;1.50;;;1.00;;
66800;SDS011;53703;50.326;19.122;2024-02-04T06:28:57;1.90;;;1.00;;
66800;SDS011;53703;50.326;19.122;2024-02-04T06:31:30;3.80;;;1.20;;
66800;SDS011;53703;50.326;19.122;2024-02-04T06:34:03;1.90;;;1.30;;
66800;SDS011;53703;50.326;19.122;2024-02-04T06:36:37;2.30;;;1.10;;
66800;SDS011;53703;50.326;19.122;2024-02-04T06:39:13;1.80;;;1.10;;
66800;SDS011;53703;50.326;19.122;2024-02-04T06:41:47;2.50;;;1.30;;
66800;SDS011;53703;50.326;19.122;2024-02-04T06:44:20;1.60;;;1.00;;
66800;SDS011;53703;50.326;19.122;2024-02-04T06:46:54;2.50;;;1.10;;
66800;SDS011;53703;50.326;19.122;2024-02-04T06:49:27;2.00;;;1.20;;
66800;SDS011;53703;50.326;19.122;2024-02-04T06:52:00;1.60;;;1.10;;
66800;SDS011;53703;50.326;19.122;2024-02-04T06:54:34;2.90;;;1.20;;
66800;SDS011;53703;50.326;19.122;2024-02-04T06:57:08;1.50;;;1.00;;
66800;SDS011;53703;50.326;19.122;2024-02-04T06:59:42;2.20;;;0.90;;
66800;SDS011;53703;50.326;19.122;2024-02-04T07:02:15;1.80;;;1.10;;
66800;SDS011;53703;50.326;19.122;2024-02-04T07:04:48;1.90;;;1.00;;
66800;SDS011;53703;50.326;19.122;2024-02-04T07:07:24;2.30;;;1.00;;
66800;SDS011;53703;50.326;19.122;2024-02-04T07:09:58;1.90;;;1.10;;
66800;SDS011;53703;50.326;19.122;2024-02-04T07:12:33;2.60;;;1.10;;
66800;SDS011;53703;50.326;19.122;2024-02-04T07:15:07;2.10;;;1.10;;
66800;SDS011;53703;50.326;19.122;2024-02-04T07:17:40;2.30;;;1.00;;
66800;SDS011;53703;50.326;19.122;2024-02-04T07:20:16;1.50;;;1.00;;
66800;SDS011;53703;50.326;19.122;2024-02-04T07:22:50;1.70;;;1.00;;
66800;SDS011;53703;50.326;19.122;2024-02-04T07:25:24;2.60;;;1.10;;
66800;SDS011;53703;50.326;19.122;2024-02-04T07:27:57;1.80;;;0.80;;
66800;SDS011;53703;50.326;19.122;2024-02-04T07:30:31;2.40;;;1.10;;
66800;SDS011;53703;50.326;19.122;2024-02-04T07:33:05;1.40;;;1.00;;
66800;SDS011;53703;50.326;19.122;2024-02-04T07:35:38;2.00;;;0.90;;
66800;SDS011;53703;50.326;19.122;2024-02-04T07:38:12;2.10;;;0.90;;
66800;SDS011;53703;50.326;19.122;2024-02-04T07:40:45;1.50;;;0.90;;
66800;SDS011;53703;50.326;19.122;2024-02-04T07:43:19;1.80;;;1.00;;
66800;SDS011;53703;50.326;19.122;2024-02-04T07:45:52;1.60;;;0.80;;
66800;SDS011;53703;50.326;19.122;2024-02-04T07:48:26;1.70;;;1.00;;
66800;SDS011;53703;50.326;19.122;2024-02-04T07:51:00;2.10;;;1.00;;
66800;SDS011;53703;50.326;19.122;2024-02-04T07:53:34;2.10;;;1.00;;
66800;SDS011;53703;50.326;19.122;2024-02-04T07:56:08;1.40;;;0.80;;
66800;SDS011;53703;50.326;19.122;2024-02-04T07:58:41;1.90;;;1.00;;
66800;SDS011;53703;50.326;19.122;2024-02-04T08:01:15;1.40;;;1.00;;
66800;SDS011;53703;50.326;19.122;2024-02-04T08:03:49;2.10;;;0.90;;
66800;SDS011;53703;50.326;19.122;2024-02-04T08:06:23;1.60;;;0.90;;
66800;SDS011;53703;50.326;19.122;2024-02-04T08:08:56;1.50;;;0.70;;
66800;SDS011;53703;50.326;19.122;2024-02-04T08:11:30;2.50;;;0.90;;
66800;SDS011;53703;50.326;19.122;2024-02-04T08:14:03;2.20;;;0.80;;
66800;SDS011;53703;50.326;19.122;2024-02-04T08:16:37;2.30;;;0.80;;
66800;SDS011;53703;50.326;19.122;2024-02-04T08:19:10;1.70;;;0.90;;
66800;SDS011;53703;50.326;19.122;2024-02-04T08:21:44;1.60;;;1.00;;
66800;SDS011;53703;50.326;19.122;2024-02-04T08:24:18;1.90;;;1.00;;
66800;SDS011;53703;50.326;19.122;2024-02-04T08:26:51;1.20;;;0.80;;
66800;SDS011;53703;50.326;19.122;2024-02-04T08:29:25;2.00;;;0.90;;
66800;SDS011;53703;50.326;19.122;2024-02-04T08:31:58;2.40;;;0.90;;
66800;SDS011;53703;50.326;19.122;2024-02-04T08:34:32;1.40;;;0.90;;
66800;SDS011;53703;50.326;19.122;2024-02-04T08:37:06;2.30;;;0.90;;
66800;SDS011;53703;50.326;19.122;2024-02-04T08:39:39;2.00;;;1.00;;
66800;SDS011;53703;50.326;19.122;2024-02-04T08:42:13;1.30;;;0.90;;
66800;SDS011;53703;50.326;19.122;2024-02-04T08:44:46;1.70;;;0.90;;
66800;SDS011;53703;50.326;19.122;2024-02-04T08:47:20;1.60;;;0.80;;
66800;SDS011;53703;50.326;19.122;2024-02-04T08:49:53;2.10;;;0.80;;
66800;SDS011;53703;50.326;19.122;2024-02-04T08:52:28;1.90;;;0.80;;
66800;SDS011;53703;50.326;19.122;2024-02-04T08:55:02;2.00;;;1.00;;
66800;SDS011;53703;50.326;19.122;2024-02-04T08:57:36;1.50;;;1.00;;
66800;SDS011;53703;50.326;19.122;2024-02-04T09:00:12;1.50;;;0.80;;
66800;SDS011;53703;50.326;19.122;2024-02-04T09:02:46;1.80;;;0.90;;
66800;SDS011;53703;50.326;19.122;2024-02-04T09:05:20;1.70;;;0.80;;
66800;SDS011;53703;50.326;19.122;2024-02-04T09:07:54;1.50;;;0.90;;
66800;SDS011;53703;50.326;19.122;2024-02-04T09:10:27;2.00;;;1.00;;
66800;SDS011;53703;50.326;19.122;2024-02-04T09:13:00;1.30;;;1.10;;
66800;SDS011;53703;50.326;19.122;2024-02-04T09:15:35;2.50;;;1.10;;
66800;SDS011;53703;50.326;19.122;2024-02-04T09:18:08;1.60;;;0.80;;
66800;SDS011;53703;50.326;19.122;2024-02-04T09:20:43;1.50;;;0.80;;
66800;SDS011;53703;50.326;19.122;2024-02-04T09:23:16;1.20;;;0.80;;
66800;SDS011;53703;50.326;19.122;2024-02-04T09:25:50;2.20;;;1.40;;
66800;SDS011;53703;50.326;19.122;2024-02-04T09:28:24;2.30;;;1.00;;
66800;SDS011;53703;50.326;19.122;2024-02-04T09:30:58;2.80;;;0.90;;
66800;SDS011;53703;50.326;19.122;2024-02-04T09:33:32;1.80;;;0.90;;
66800;SDS011;53703;50.326;19.122;2024-02-04T09:36:07;2.60;;;1.00;;
66800;SDS011;53703;50.326;19.122;2024-02-04T09:38:41;2.50;;;1.00;;
66800;SDS011;53703;50.326;19.122;2024-02-04T09:41:15;2.10;;;1.40;;
66800;SDS011;53703;50.326;19.122;2024-02-04T09:43:49;2.00;;;0.90;;
66800;SDS011;53703;50.326;19.122;2024-02-04T09:46:24;3.20;;;1.10;;
66800;SDS011;53703;50.326;19.122;2024-02-04T09:48:58;2.10;;;1.00;;
66800;SDS011;53703;50.326;19.122;2024-02-04T09:51:34;1.90;;;0.90;;
66800;SDS011;53703;50.326;19.122;2024-02-04T09:54:09;1.80;;;1.00;;
66800;SDS011;53703;50.326;19.122;2024-02-04T09:56:43;2.40;;;1.00;;
66800;SDS011;53703;50.326;19.122;2024-02-04T09:59:18;4.50;;;1.00;;
66800;SDS011;53703;50.326;19.122;2024-02-04T10:01:51;4.50;;;1.00;;
66800;SDS011;53703;50.326;19.122;2024-02-04T10:04:27;2.10;;;1.10;;
66800;SDS011;53703;50.326;19.122;2024-02-04T10:07:01;2.40;;;1.00;;
66800;SDS011;53703;50.326;19.122;2024-02-04T10:09:36;3.40;;;0.80;;
66800;SDS011;53703;50.326;19.122;2024-02-04T10:12:11;1.60;;;1.00;;
66800;SDS011;53703;50.326;19.122;2024-02-04T10:14:44;5.00;;;2.40;;
66800;SDS011;53703;50.326;19.122;2024-02-04T10:17:18;22.50;;;10.50;;
66800;SDS011;53703;50.326;19.122;2024-02-04T10:19:52;15.50;;;8.30;;
66800;SDS011;53703;50.326;19.122;2024-02-04T10:22:26;9.60;;;5.20;;
66800;SDS011;53703;50.326;19.122;2024-02-04T10:25:09;8.90;;;4.20;;
66800;SDS011;53703;50.326;19.122;2024-02-04T10:27:44;9.30;;;3.90;;
66800;SDS011;53703;50.326;19.122;2024-02-04T10:30:19;7.90;;;3.60;;
66800;SDS011;53703;50.326;19.122;2024-02-04T10:32:53;7.10;;;3.50;;
66800;SDS011;53703;50.326;19.122;2024-02-04T10:35:27;7.20;;;3.10;;
66800;SDS011;53703;50.326;19.122;2024-02-04T10:38:01;7.00;;;3.10;;
66800;SDS011;53703;50.326;19.122;2024-02-04T10:40:35;6.50;;;3.00;;
66800;SDS011;53703;50.326;19.122;2024-02-04T10:43:09;5.60;;;2.70;;
66800;SDS011;53703;50.326;19.122;2024-02-04T10:45:43;5.00;;;2.60;;
66800;SDS011;53703;50.326;19.122;2024-02-04T10:48:20;6.10;;;3.10;;
66800;SDS011;53703;50.326;19.122;2024-02-04T10:50:57;6.00;;;2.90;;
66800;SDS011;53703;50.326;19.122;2024-02-04T10:53:31;6.50;;;2.70;;
66800;SDS011;53703;50.326;19.122;2024-02-04T10:56:07;6.10;;;2.70;;
66800;SDS011;53703;50.326;19.122;2024-02-04T10:58:46;6.10;;;2.80;;
66800;SDS011;53703;50.326;19.122;2024-02-04T11:01:21;6.50;;;2.80;;
66800;SDS011;53703;50.326;19.122;2024-02-04T11:03:55;5.00;;;2.40;;
66800;SDS011;53703;50.326;19.122;2024-02-04T11:06:30;4.80;;;2.40;;
66800;SDS011;53703;50.326;19.122;2024-02-04T11:09:06;4.50;;;2.20;;
66800;SDS011;53703;50.326;19.122;2024-02-04T11:11:40;8.30;;;2.20;;
66800;SDS011;53703;50.326;19.122;2024-02-04T11:14:16;5.00;;;2.10;;
66800;SDS011;53703;50.326;19.122;2024-02-04T11:17:04;3.50;;;2.10;;
66800;SDS011;53703;50.326;19.122;2024-02-04T11:20:15;3.10;;;1.90;;
66800;SDS011;53703;50.326;19.122;2024-02-04T11:23:05;5.50;;;2.30;;
66800;SDS011;53703;50.326;19.122;2024-02-04T11:25:56;5.20;;;2.10;;
66800;SDS011;53703;50.326;19.122;2024-02-04T11:28:31;4.00;;;2.10;;
66800;SDS011;53703;50.326;19.122;2024-02-04T11:31:09;4.40;;;2.20;;
66800;SDS011;53703;50.326;19.122;2024-02-04T11:33:51;5.70;;;2.50;;
66800;SDS011;53703;50.326;19.122;2024-02-04T11:36:26;3.90;;;2.00;;
66800;SDS011;53703;50.326;19.122;2024-02-04T11:39:13;4.60;;;2.20;;
66800;SDS011;53703;50.326;19.122;2024-02-04T11:41:52;4.30;;;2.20;;
66800;SDS011;53703;50.326;19.122;2024-02-04T11:44:27;3.80;;;2.10;;
66800;SDS011;53703;50.326;19.122;2024-02-04T11:47:05;7.40;;;2.50;;
66800;SDS011;53703;50.326;19.122;2024-02-04T11:50:11;3.80;;;1.90;;
66800;SDS011;53703;50.326;19.122;2024-02-04T11:52:45;4.00;;;1.90;;
66800;SDS011;53703;50.326;19.122;2024-02-04T11:55:21;4.60;;;2.10;;
66800;SDS011;53703;50.326;19.122;2024-02-04T11:57:55;4.60;;;1.90;;
66800;SDS011;53703;50.326;19.122;2024-02-04T12:03:38;4.10;;;2.10;;
66800;SDS011;53703;50.326;19.122;2024-02-04T12:06:21;3.20;;;1.70;;
66800;SDS011;53703;50.326;19.122;2024-02-04T12:08:55;3.70;;;1.80;;
66800;SDS011;53703;50.326;19.122;2024-02-04T12:11:29;5.60;;;1.90;;
66800;SDS011;53703;50.326;19.122;2024-02-04T12:14:08;5.70;;;1.80;;
66800;SDS011;53703;50.326;19.122;2024-02-04T12:16:45;4.30;;;2.50;;
66800;SDS011;53703;50.326;19.122;2024-02-04T12:19:19;3.30;;;1.90;;
66800;SDS011;53703;50.326;19.122;2024-02-04T12:21:53;4.00;;;2.40;;
66800;SDS011;53703;50.326;19.122;2024-02-04T12:24:27;7.00;;;2.70;;
66800;SDS011;53703;50.326;19.122;2024-02-04T12:27:01;4.10;;;2.50;;
66800;SDS011;53703;50.326;19.122;2024-02-04T12:29:36;4.70;;;2.30;;
66800;SDS011;53703;50.326;19.122;2024-02-04T12:32:13;5.10;;;2.70;;
66800;SDS011;53703;50.326;19.122;2024-02-04T12:34:49;4.50;;;2.50;;
66800;SDS011;53703;50.326;19.122;2024-02-04T12:37:25;5.10;;;2.70;;
66800;SDS011;53703;50.326;19.122;2024-02-04T12:40:00;4.30;;;2.70;;
66800;SDS011;53703;50.326;19.122;2024-02-04T12:42:34;4.90;;;2.50;;
66800;SDS011;53703;50.326;19.122;2024-02-04T12:45:09;4.20;;;2.20;;
66800;SDS011;53703;50.326;19.122;2024-02-04T12:47:49;4.60;;;2.70;;
66800;SDS011;53703;50.326;19.122;2024-02-04T12:53:36;4.10;;;2.50;;
66800;SDS011;53703;50.326;19.122;2024-02-04T12:56:25;4.90;;;2.60;;
66800;SDS011;53703;50.326;19.122;2024-02-04T12:59:28;4.20;;;2.50;;
66800;SDS011;53703;50.326;19.122;2024-02-04T13:02:10;6.30;;;2.90;;
66800;SDS011;53703;50.326;19.122;2024-02-04T13:04:47;5.70;;;2.80;;
66800;SDS011;53703;50.326;19.122;2024-02-04T13:07:22;5.10;;;2.30;;
66800;SDS011;53703;50.326;19.122;2024-02-04T13:16:54;5.60;;;2.70;;
66800;SDS011;53703;50.326;19.122;2024-02-04T13:20:08;5.60;;;2.50;;
66800;SDS011;53703;50.326;19.122;2024-02-04T13:28:13;3.70;;;2.30;;
66800;SDS011;53703;50.326;19.122;2024-02-04T13:31:30;6.20;;;3.50;;
66800;SDS011;53703;50.326;19.122;2024-02-04T13:34:18;7.40;;;3.10;;
66800;SDS011;53703;50.326;19.122;2024-02-04T13:38:00;5.40;;;3.00;;
66800;SDS011;53703;50.326;19.122;2024-02-04T13:41:00;6.00;;;2.80;;
66800;SDS011;53703;50.326;19.122;2024-02-04T13:46:28;5.60;;;2.70;;
66800;SDS011;53703;50.326;19.122;2024-02-04T13:49:19;6.60;;;2.80;;
66800;SDS011;53703;50.326;19.122;2024-02-04T13:51:53;5.10;;;2.80;;
66800;SDS011;53703;50.326;19.122;2024-02-04T14:00:06;8.20;;;3.50;;
66800;SDS011;53703;50.326;19.122;2024-02-04T14:03:02;6.30;;;3.50;;
66800;SDS011;53703;50.326;19.122;2024-02-04T14:05:45;6.60;;;3.50;;
66800;SDS011;53703;50.326;19.122;2024-02-04T14:08:50;9.60;;;3.90;;
66800;SDS011;53703;50.326;19.122;2024-02-04T14:11:56;7.80;;;3.80;;
66800;SDS011;53703;50.326;19.122;2024-02-04T14:14:50;6.00;;;3.50;;
66800;SDS011;53703;50.326;19.122;2024-02-04T14:17:31;6.60;;;3.50;;
66800;SDS011;53703;50.326;19.122;2024-02-04T14:20:13;7.60;;;3.60;;
66800;SDS011;53703;50.326;19.122;2024-02-04T14:25:24;8.60;;;3.60;;
66800;SDS011;53703;50.326;19.122;2024-02-04T14:28:05;8.80;;;4.20;;
66800;SDS011;53703;50.326;19.122;2024-02-04T14:34:17;9.20;;;4.50;;
66800;SDS011;53703;50.326;19.122;2024-02-04T14:37:14;9.30;;;3.90;;
66800;SDS011;53703;50.326;19.122;2024-02-04T14:39:50;8.00;;;4.30;;
66800;SDS011;53703;50.326;19.122;2024-02-04T14:45:45;8.60;;;4.30;;
66800;SDS011;53703;50.326;19.122;2024-02-04T14:51:23;10.00;;;4.40;;
66800;SDS011;53703;50.326;19.122;2024-02-04T14:54:04;6.50;;;3.80;;
66800;SDS011;53703;50.326;19.122;2024-02-04T14:56:40;8.80;;;4.10;;
66800;SDS011;53703;50.326;19.122;2024-02-04T14:59:25;10.30;;;4.20;;
66800;SDS011;53703;50.326;19.122;2024-02-04T15:02:13;8.70;;;3.80;;
66800;SDS011;53703;50.326;19.122;2024-02-04T15:04:48;9.60;;;4.20;;
66800;SDS011;53703;50.326;19.122;2024-02-04T15:07:27;11.90;;;4.20;;
66800;SDS011;53703;50.326;19.122;2024-02-04T15:11:12;9.60;;;4.60;;
66800;SDS011;53703;50.326;19.122;2024-02-04T15:14:08;9.30;;;4.00;;
66800;SDS011;53703;50.326;19.122;2024-02-04T15:16:52;13.30;;;4.60;;
66800;SDS011;53703;50.326;19.122;2024-02-04T15:19:41;9.60;;;3.90;;
66800;SDS011;53703;50.326;19.122;2024-02-04T15:22:23;10.20;;;4.50;;
66800;SDS011;53703;50.326;19.122;2024-02-04T15:24:59;11.50;;;4.50;;
66800;SDS011;53703;50.326;19.122;2024-02-04T15:27:53;7.00;;;3.80;;
66800;SDS011;53703;50.326;19.122;2024-02-04T15:30:35;8.80;;;4.20;;
66800;SDS011;53703;50.326;19.122;2024-02-04T15:33:33;6.80;;;4.00;;
66800;SDS011;53703;50.326;19.122;2024-02-04T15:36:30;7.90;;;3.90;;
66800;SDS011;53703;50.326;19.122;2024-02-04T15:42:42;7.90;;;3.70;;
66800;SDS011;53703;50.326;19.122;2024-02-04T15:47:03;7.20;;;4.10;;
66800;SDS011;53703;50.326;19.122;2024-02-04T15:53:41;7.20;;;3.90;;
66800;SDS011;53703;50.326;19.122;2024-02-04T16:10:30;6.90;;;3.50;;
66800;SDS011;53703;50.326;19.122;2024-02-04T16:13:08;7.20;;;3.80;;
66800;SDS011;53703;50.326;19.122;2024-02-04T16:15:47;6.70;;;3.80;;
66800;SDS011;53703;50.326;19.122;2024-02-04T16:18:28;8.50;;;3.50;;
66800;SDS011;53703;50.326;19.122;2024-02-04T16:21:02;6.00;;;3.80;;
66800;SDS011;53703;50.326;19.122;2024-02-04T16:23:37;8.40;;;4.40;;
66800;SDS011;53703;50.326;19.122;2024-02-04T16:26:11;10.10;;;4.70;;
66800;SDS011;53703;50.326;19.122;2024-02-04T16:28:45;7.60;;;4.10;;
66800;SDS011;53703;50.326;19.122;2024-02-04T16:31:19;8.90;;;4.30;;
66800;SDS011;53703;50.326;19.122;2024-02-04T16:33:53;6.40;;;3.80;;
66800;SDS011;53703;50.326;19.122;2024-02-04T16:36:40;6.90;;;4.10;;
66800;SDS011;53703;50.326;19.122;2024-02-04T16:39:25;8.20;;;4.20;;
66800;SDS011;53703;50.326;19.122;2024-02-04T16:42:17;8.70;;;4.40;;